Decoded Metar for LETU ( in ) (IATA:) | Meteo·Mobile Aviation Weather
aviador You're here:

LETU Decoded Metar

in
Report Time2019-03-23 08:00:00
UTC Time2019-03-23 08:28:26
Flight Rules vfr VFR
WindVRB at 02 kt
Visibility9999 m
Phenomena:N/A
Clouds:N/A
Expected CloudBase > 3,600 ft AGL from Temp-Dew spread
CeilingNone
Temp09°C
Dew Point00°C (54% RH)
AAT6.3°C
QNH1029 hPa
Raw Report
METAR LETU 230800Z AUTO VRB02KT 9999 NCD 09/00 Q1029=

Extra information for LETU:More info

Social comments